Time;durP1;ratioP1;P1;durP2;ratioP2;P2;SDS_P1;SDS_P2;PMS_P1;PMS_P2;Temp;Humidity;BMP_temperature;BMP_pressure;BME280_temperature;BME280_humidity;BME280_pressure;Samples;Min_cycle;Max_cycle;Signal;HPM_P1;HPM_P2
2023/12/01 00:02:07;;;;;;;26.87;13.43;;;9.60;99.90;;;;;;5065807;28;20045;-81
2023/12/01 00:04:33;;;;;;;25.53;13.07;;;9.70;99.90;;;;;;5067188;28;20032;-81
2023/12/01 00:06:58;;;;;;;21.73;12.30;;;9.60;99.90;;;;;;5050240;28;20111;-81
2023/12/01 00:09:24;;;;;;;36.80;15.47;;;9.60;99.90;;;;;;5049552;28;20053;-81
2023/12/01 00:11:49;;;;;;;22.05;12.50;;;9.60;99.90;;;;;;5049440;28;20032;-81
2023/12/01 00:14:15;;;;;;;26.13;14.10;;;9.60;99.90;;;;;;5049495;28;20107;-81
2023/12/01 00:16:41;;;;;;;24.63;13.63;;;9.60;99.90;;;;;;5049318;28;20480;-81
2023/12/01 00:19:06;;;;;;;27.50;14.60;;;9.60;99.90;;;;;;5049424;28;20029;-80
2023/12/01 00:21:32;;;;;;;22.37;14.03;;;9.60;99.90;;;;;;5049733;28;20037;-81
2023/12/01 00:23:58;;;;;;;25.17;13.83;;;9.70;99.90;;;;;;5049177;28;20029;-80
2023/12/01 00:26:23;;;;;;;28.27;14.77;;;9.60;99.90;;;;;;5049503;28;20492;-80
2023/12/01 00:28:49;;;;;;;29.00;15.17;;;9.70;99.90;;;;;;5049141;28;20029;-81
2023/12/01 00:31:15;;;;;;;33.03;15.63;;;9.60;99.90;;;;;;5049752;28;20029;-80
2023/12/01 00:33:41;;;;;;;31.50;15.38;;;9.60;99.90;;;;;;5049035;28;20544;-81
2023/12/01 00:36:07;;;;;;;30.70;16.17;;;9.60;99.90;;;;;;5049717;28;20025;-80
2023/12/01 00:38:32;;;;;;;29.08;15.43;;;9.60;99.90;;;;;;5050345;28;20091;-80
2023/12/01 00:40:58;;;;;;;25.23;14.73;;;9.60;99.90;;;;;;5049587;28;20045;-80
2023/12/01 00:43:25;;;;;;;25.07;13.80;;;9.60;99.90;;;;;;5049281;28;20508;-80
2023/12/01 00:45:51;;;;;;;26.60;15.43;;;9.60;99.90;;;;;;5053707;28;20046;-81
2023/12/01 00:48:16;;;;;;;24.60;14.20;;;9.60;99.90;;;;;;5069350;28;20094;-80
2023/12/01 00:50:42;;;;;;;28.47;15.13;;;9.60;99.90;;;;;;5084704;28;20039;-80
2023/12/01 00:53:08;;;;;;;25.60;14.63;;;9.60;99.90;;;;;;5069018;28;20025;-81
2023/12/01 00:55:34;;;;;;;;;;;9.60;99.90;;;;;;5069088;28;20036;-80
2023/12/01 00:58:00;;;;;;;25.73;15.52;;;9.60;99.90;;;;;;5068967;28;19915;-80
2023/12/01 01:00:26;;;;;;;30.77;13.77;;;9.50;99.90;;;;;;5068318;28;20046;-80
2023/12/01 01:02:51;;;;;;;26.97;13.83;;;9.60;99.90;;;;;;5068797;28;20123;-80
2023/12/01 01:05:17;;;;;;;23.87;13.97;;;9.60;99.90;;;;;;5061458;28;20059;-80
2023/12/01 01:07:43;;;;;;;25.87;15.10;;;9.60;99.90;;;;;;5047884;28;20477;-81
2023/12/01 01:10:09;;;;;;;28.25;16.15;;;9.60;99.90;;;;;;5048727;28;20025;-81
2023/12/01 01:12:34;;;;;;;30.13;16.63;;;9.60;99.90;;;;;;5063499;28;20079;-81
2023/12/01 01:15:03;;;;;;;33.17;15.93;;;9.60;99.90;;;;;;5048150;28;20021;-80
2023/12/01 01:17:29;;;;;;;27.73;15.45;;;9.60;99.90;;;;;;5048585;28;20064;-81
2023/12/01 01:19:55;;;;;;;29.00;15.25;;;9.50;99.90;;;;;;5047799;28;20027;-81
2023/12/01 01:22:20;;;;;;;24.17;13.40;;;9.50;99.90;;;;;;5047782;28;20743;-81
2023/12/01 01:24:46;;;;;;;14.77;8.07;;;9.60;99.90;;;;;;5048417;28;20033;-80
2023/12/01 01:27:11;;;;;;;16.37;8.67;;;9.50;99.90;;;;;;5048254;28;20025;-80
2023/12/01 01:29:37;;;;;;;17.83;9.20;;;9.50;99.90;;;;;;5048462;28;20048;-80
2023/12/01 01:32:03;;;;;;;16.00;8.53;;;9.50;99.90;;;;;;5048394;28;20029;-80
2023/12/01 01:34:29;;;;;;;17.02;9.50;;;9.50;99.90;;;;;;5048077;28;20532;-80
2023/12/01 01:36:55;;;;;;;13.90;8.30;;;9.50;99.90;;;;;;5048459;28;20044;-80
2023/12/01 01:39:20;;;;;;;17.05;9.30;;;9.60;99.90;;;;;;5048234;28;20403;-81
2023/12/01 01:41:46;;;;;;;21.33;9.00;;;9.60;99.90;;;;;;5047857;28;20559;-80
2023/12/01 01:44:11;;;;;;;19.20;9.13;;;9.60;99.90;;;;;;5047628;28;20025;-80
2023/12/01 01:46:37;;;;;;;13.50;8.43;;;9.60;99.90;;;;;;5058257;28;20032;-81
2023/12/01 01:49:05;;;;;;;14.55;8.40;;;9.60;99.90;;;;;;5064576;28;20103;-81
2023/12/01 01:51:32;;;;;;;13.45;8.07;;;9.60;99.90;;;;;;5068311;28;20048;-80
2023/12/01 01:53:58;;;;;;;15.95;7.88;;;9.60;99.90;;;;;;5068248;28;20027;-80
2023/12/01 01:56:26;;;;;;;14.98;8.40;;;9.60;99.90;;;;;;5068086;28;20035;-80
2023/12/01 01:58:51;;;;;;;13.27;7.88;;;9.60;99.90;;;;;;5068036;28;20020;-80
2023/12/01 02:01:17;;;;;;;13.03;7.87;;;9.60;99.90;;;;;;5067729;28;20386;-81
2023/12/01 02:03:43;;;;;;;10.90;7.43;;;9.60;99.90;;;;;;5067782;28;20028;-80
2023/12/01 02:06:08;;;;;;;13.40;7.63;;;9.60;99.90;;;;;;5066522;28;20119;-80
2023/12/01 02:08:34;;;;;;;17.80;8.63;;;9.60;99.90;;;;;;5065540;28;20029;-81
2023/12/01 02:11:01;;;;;;;13.48;8.63;;;9.50;99.90;;;;;;5046721;28;20033;-80
2023/12/01 02:13:28;;;;;;;;;;;9.50;99.90;;;;;;5039480;28;20915;-78
2023/12/01 02:15:54;;;;;;;10.68;6.35;;;9.50;99.90;;;;;;5038567;28;19916;-79
2023/12/01 02:18:25;;;;;;;9.05;5.38;;;9.50;99.90;;;;;;5039713;28;20056;-79
2023/12/01 02:20:52;;;;;;;7.60;4.28;;;9.50;99.90;;;;;;5035016;28;20420;-80
2023/12/01 02:23:18;;;;;;;5.28;3.58;;;9.50;99.90;;;;;;5039699;28;20492;-81
2023/12/01 02:25:44;;;;;;;5.97;3.20;;;9.50;99.90;;;;;;5028031;28;20029;-79
2023/12/01 02:28:10;;;;;;;4.45;2.90;;;9.50;99.90;;;;;;5036601;28;20516;-80
2023/12/01 02:30:36;;;;;;;5.78;3.60;;;9.50;99.90;;;;;;5044674;28;20021;-80
2023/12/01 02:33:01;;;;;;;4.75;3.50;;;9.50;99.90;;;;;;5037764;28;20110;-81
2023/12/01 02:35:30;;;;;;;2.97;2.33;;;9.50;99.90;;;;;;5028670;28;20456;-80
2023/12/01 02:37:56;;;;;;;4.18;2.28;;;9.50;99.90;;;;;;5035149;28;20064;-81
2023/12/01 02:40:23;;;;;;;2.45;1.35;;;9.50;99.90;;;;;;5037069;28;20037;-79
2023/12/01 02:42:49;;;;;;;;;;;9.40;99.90;;;;;;5028196;28;20041;-79
2023/12/01 02:45:14;;;;;;;2.28;1.70;;;9.40;99.90;;;;;;5042930;28;19982;-79
2023/12/01 02:47:40;;;;;;;2.47;1.50;;;9.30;99.90;;;;;;5042557;28;20053;-79
2023/12/01 02:50:09;;;;;;;1.93;1.60;;;9.30;99.90;;;;;;5036353;28;20087;-79
2023/12/01 02:52:36;;;;;;;5.30;1.50;;;9.30;99.90;;;;;;5029282;28;20067;-79
2023/12/01 02:55:02;;;;;;;1.23;1.10;;;9.30;99.90;;;;;;5037761;28;20547;-79
2023/12/01 02:57:28;;;;;;;1.80;1.33;;;9.20;99.90;;;;;;5035604;28;20022;-79
2023/12/01 02:59:53;;;;;;;2.70;1.33;;;9.20;99.90;;;;;;5035008;28;20436;-79
2023/12/01 03:02:19;;;;;;;1.50;1.07;;;9.20;99.90;;;;;;5052848;28;20037;-78
2023/12/01 03:04:44;;;;;;;1.07;0.97;;;9.20;99.90;;;;;;5038139;28;20035;-79
2023/12/01 03:07:10;;;;;;;0.93;0.90;;;9.20;99.90;;;;;;5028404;28;20037;-78
2023/12/01 03:09:37;;;;;;;0.93;0.73;;;9.10;99.90;;;;;;5038993;28;20025;-79
2023/12/01 03:12:03;;;;;;;1.92;0.77;;;9.10;99.90;;;;;;5029522;28;20037;-78
2023/12/01 03:14:29;;;;;;;1.25;0.60;;;9.10;99.90;;;;;;5041452;28;20032;-79
2023/12/01 03:16:56;;;;;;;1.77;0.80;;;9.10;99.90;;;;;;5033517;28;20041;-79
2023/12/01 03:19:22;;;;;;;3.72;0.60;;;9.00;99.90;;;;;;5039801;28;20037;-80
2023/12/01 03:21:48;;;;;;;1.25;0.77;;;9.00;99.90;;;;;;5034593;28;20055;-80
2023/12/01 03:24:14;;;;;;;1.00;0.90;;;9.00;99.90;;;;;;5038792;28;20040;-80
2023/12/01 03:26:40;;;;;;;2.58;0.90;;;9.00;99.90;;;;;;5039293;28;20033;-80
2023/12/01 03:29:05;;;;;;;4.87;1.23;;;9.00;99.90;;;;;;5036389;28;20809;-80
2023/12/01 03:31:31;;;;;;;1.57;0.90;;;9.00;99.90;;;;;;5035616;28;20104;-81
2023/12/01 03:33:56;;;;;;;1.40;0.90;;;8.90;99.90;;;;;;5037995;28;20038;-80
2023/12/01 03:36:22;;;;;;;0.83;0.80;;;8.90;99.90;;;;;;5038694;28;20103;-80
2023/12/01 03:38:48;;;;;;;2.33;0.80;;;8.90;99.90;;;;;;5030407;28;20049;-80
2023/12/01 03:41:15;;;;;;;1.25;0.95;;;8.90;99.90;;;;;;5042696;28;20037;-80
2023/12/01 03:43:40;;;;;;;3.10;0.80;;;8.90;99.90;;;;;;5039203;28;20164;-80
2023/12/01 03:46:06;;;;;;;0.97;0.80;;;8.80;99.90;;;;;;5042657;28;20104;-80
2023/12/01 03:48:36;;;;;;;1.13;0.87;;;8.80;99.90;;;;;;5039573;28;20037;-80
2023/12/01 03:51:01;;;;;;;0.82;0.52;;;8.90;99.90;;;;;;5046565;28;20028;-80
2023/12/01 03:53:30;;;;;;;2.55;1.50;;;8.90;99.90;;;;;;5053223;28;20432;-80
2023/12/01 03:55:57;;;;;;;2.50;1.20;;;8.80;99.90;;;;;;5042908;28;20041;-80
2023/12/01 03:58:24;;;;;;;1.25;0.77;;;8.80;99.90;;;;;;5041284;28;20029;-81
2023/12/01 04:00:51;;;;;;;0.65;0.60;;;8.70;99.90;;;;;;5042550;28;20061;-81
2023/12/01 04:03:17;;;;;;;2.33;1.08;;;8.70;99.90;;;;;;5042865;28;20056;-81
2023/12/01 04:05:43;;;;;;;1.00;0.90;;;8.80;99.90;;;;;;5035492;28;20026;-83
2023/12/01 04:08:08;;;;;;;15.60;1.90;;;8.70;99.90;;;;;;5042532;28;20041;-82
2023/12/01 04:10:34;;;;;;;1.63;0.90;;;8.80;99.90;;;;;;5046432;28;20484;-81
2023/12/01 04:13:07;;;;;;;1.30;0.60;;;8.70;99.90;;;;;;5046491;28;20115;-82
2023/12/01 04:15:36;;;;;;;4.80;0.70;;;8.70;99.90;;;;;;5054742;28;20026;-81
2023/12/01 04:18:06;;;;;;;1.25;0.77;;;8.70;99.90;;;;;;5040798;28;20098;-80
2023/12/01 04:20:36;;;;;;;1.55;0.80;;;8.70;99.90;;;;;;5046706;28;20448;-80
2023/12/01 04:23:09;;;;;;;1.00;0.70;;;8.60;99.90;;;;;;5043426;28;20033;-81
2023/12/01 04:25:38;;;;;;;1.00;0.90;;;8.60;99.90;;;;;;5038997;28;20500;-81
2023/12/01 04:28:06;;;;;;;0.80;0.80;;;8.70;99.90;;;;;;5038173;28;20067;-81
2023/12/01 04:30:32;;;;;;;1.65;1.05;;;8.60;99.90;;;;;;5038668;28;20029;-80
2023/12/01 04:32:59;;;;;;;1.08;0.88;;;8.60;99.90;;;;;;5038275;28;20033;-80
2023/12/01 04:35:32;;;;;;;1.13;0.70;;;8.60;99.90;;;;;;5054172;28;20497;-81
2023/12/01 04:38:00;;;;;;;2.22;0.93;;;8.60;99.90;;;;;;5035468;28;20037;-81
2023/12/01 04:40:27;;;;;;;0.68;0.60;;;8.60;99.90;;;;;;5042173;28;20029;-81
2023/12/01 04:42:56;;;;;;;1.80;0.80;;;8.50;99.90;;;;;;5052139;28;20099;-81
2023/12/01 04:45:25;;;;;;;5.88;0.70;;;8.50;99.90;;;;;;5038687;28;20048;-80
2023/12/01 04:47:52;;;;;;;0.93;0.70;;;8.50;99.90;;;;;;5050423;28;20032;-80
2023/12/01 04:50:25;;;;;;;4.43;0.90;;;8.50;99.90;;;;;;5036092;28;20025;-80
2023/12/01 04:52:53;;;;;;;0.88;0.80;;;8.50;99.90;;;;;;5036256;28;20091;-80
2023/12/01 04:55:20;;;;;;;1.52;0.88;;;8.60;99.90;;;;;;5045130;28;20516;-80
2023/12/01 04:57:47;;;;;;;3.15;0.90;;;8.50;99.90;;;;;;5038249;28;20060;-80
2023/12/01 05:00:21;;;;;;;2.72;0.93;;;8.50;99.90;;;;;;5034648;28;20021;-81
2023/12/01 05:02:56;;;;;;;1.27;1.10;;;8.50;99.90;;;;;;5037895;28;20120;-81
2023/12/01 05:05:26;;;;;;;3.08;1.02;;;8.50;99.90;;;;;;5038197;28;20547;-81
2023/12/01 05:07:57;;;;;;;4.15;0.90;;;8.50;99.90;;;;;;5037899;28;20065;-80
2023/12/01 05:10:23;;;;;;;2.30;1.05;;;8.50;99.90;;;;;;5057935;28;20029;-81
2023/12/01 05:12:51;;;;;;;1.50;0.95;;;8.40;99.90;;;;;;5037075;28;20028;-82
2023/12/01 05:15:18;;;;;;;2.00;0.80;;;8.50;99.90;;;;;;5037882;28;20033;-82
2023/12/01 05:17:46;;;;;;;3.47;0.80;;;8.50;99.90;;;;;;5033187;28;20839;-80
2023/12/01 05:20:18;;;;;;;2.20;0.68;;;8.50;99.90;;;;;;5038331;28;20493;-81
2023/12/01 05:22:57;;;;;;;2.10;1.10;;;8.40;99.90;;;;;;5038979;28;20513;-80
2023/12/01 05:25:27;;;;;;;1.95;1.00;;;8.50;99.90;;;;;;5039461;28;20029;-81
2023/12/01 05:27:55;;;;;;;3.00;0.90;;;8.40;99.90;;;;;;5036624;28;20028;-80
2023/12/01 05:30:22;;;;;;;6.13;0.95;;;8.50;99.90;;;;;;5038577;28;20037;-80
2023/12/01 05:32:50;;;;;;;3.17;1.00;;;8.50;99.90;;;;;;5038002;28;20036;-80
2023/12/01 05:35:16;;;;;;;1.67;1.02;;;8.40;99.90;;;;;;5037951;28;20029;-80
2023/12/01 05:37:48;;;;;;;2.30;1.27;;;8.40;99.90;;;;;;5039990;28;20029;-80
2023/12/01 05:40:20;;;;;;;4.28;1.38;;;8.30;99.90;;;;;;5038923;28;20041;-80
2023/12/01 05:42:47;;;;;;;2.45;1.08;;;8.40;99.90;;;;;;5039271;28;20056;-80
2023/12/01 05:45:13;;;;;;;1.85;1.20;;;8.40;99.90;;;;;;5031823;28;20030;-81
2023/12/01 05:47:44;;;;;;;2.95;1.20;;;8.30;99.90;;;;;;5044455;28;20524;-80
2023/12/01 05:50:14;;;;;;;2.72;1.15;;;8.30;99.90;;;;;;5036905;28;20029;-81
2023/12/01 05:52:45;;;;;;;4.38;1.90;;;8.40;99.90;;;;;;5034987;28;20405;-80
2023/12/01 05:55:16;;;;;;;4.97;1.83;;;8.40;99.90;;;;;;5034199;28;20100;-80
2023/12/01 05:57:42;;;;;;;3.85;1.40;;;8.30;99.90;;;;;;5043439;28;20044;-80
2023/12/01 06:00:12;;;;;;;4.05;2.17;;;8.30;99.90;;;;;;5032921;28;20025;-80
2023/12/01 06:02:49;;;;;;;6.45;2.05;;;8.30;99.90;;;;;;5046537;28;20037;-80
2023/12/01 06:05:17;;;;;;;7.97;1.73;;;8.30;99.90;;;;;;5041324;28;20146;-80
2023/12/01 06:07:44;;;;;;;3.67;1.77;;;8.30;99.90;;;;;;5032804;28;20052;-80
2023/12/01 06:10:11;;;;;;;4.20;2.05;;;8.30;99.90;;;;;;5048885;28;20033;-80
2023/12/01 06:12:38;;;;;;;7.00;2.42;;;8.30;99.90;;;;;;5036364;28;20524;-80
2023/12/01 06:15:09;;;;;;;5.60;2.72;;;8.30;99.90;;;;;;5043683;28;20053;-80
2023/12/01 06:17:36;;;;;;;4.18;1.70;;;8.30;99.90;;;;;;5034445;28;20028;-80
2023/12/01 06:20:02;;;;;;;4.82;1.58;;;8.30;99.90;;;;;;5039497;28;20056;-81
2023/12/01 06:22:27;;;;;;;4.38;1.65;;;8.30;99.90;;;;;;5033709;28;20068;-81
2023/12/01 06:24:53;;;;;;;3.10;1.60;;;8.30;99.90;;;;;;5051476;28;20025;-80
2023/12/01 06:27:19;;;;;;;3.23;1.07;;;8.20;99.90;;;;;;5040238;28;20028;-81
2023/12/01 06:29:44;;;;;;;3.30;1.20;;;8.30;99.90;;;;;;5031021;28;20041;-81
2023/12/01 06:32:10;;;;;;;2.40;1.03;;;8.30;99.90;;;;;;5041614;28;20033;-80
2023/12/01 06:34:36;;;;;;;3.40;0.97;;;8.20;99.90;;;;;;5039730;28;20287;-80
2023/12/01 06:37:02;;;;;;;2.58;1.20;;;8.30;99.90;;;;;;5048691;28;20074;-78
2023/12/01 06:39:27;;;;;;;4.53;1.47;;;8.30;99.90;;;;;;5037600;28;20059;-78
2023/12/01 06:41:53;;;;;;;1.85;1.17;;;8.20;99.90;;;;;;5040595;28;20130;-77
2023/12/01 06:44:20;;;;;;;4.07;1.60;;;8.20;99.90;;;;;;5051040;28;20032;-81
2023/12/01 06:46:46;;;;;;;2.25;1.77;;;8.20;99.90;;;;;;5038927;28;20040;-78
2023/12/01 06:49:12;;;;;;;2.22;1.77;;;8.20;99.90;;;;;;5035994;28;20783;-78
2023/12/01 06:51:38;;;;;;;3.95;2.00;;;8.20;99.90;;;;;;5033588;28;20520;-79
2023/12/01 06:54:04;;;;;;;3.63;2.20;;;8.20;99.90;;;;;;5032541;28;20620;-76
2023/12/01 06:56:30;;;;;;;8.00;1.50;;;8.20;99.90;;;;;;5036589;28;20056;-78
2023/12/01 06:58:56;;;;;;;7.30;2.03;;;8.20;99.90;;;;;;5037810;28;20025;-78
2023/12/01 07:01:21;;;;;;;3.90;1.90;;;8.10;99.90;;;;;;5037092;28;20048;-83
2023/12/01 07:03:48;;;;;;;4.13;2.00;;;8.10;99.90;;;;;;5039094;28;20110;-79
2023/12/01 07:06:14;;;;;;;5.93;3.30;;;8.10;99.90;;;;;;5034167;28;20054;-79
2023/12/01 07:08:40;;;;;;;4.03;2.22;;;8.10;99.90;;;;;;5035480;28;20037;-80
2023/12/01 07:11:07;;;;;;;5.05;2.42;;;8.10;99.90;;;;;;5038413;28;20078;-80
2023/12/01 07:13:33;;;;;;;5.15;2.40;;;8.10;99.90;;;;;;5033482;28;20100;-83
2023/12/01 07:15:59;;;;;;;4.10;2.13;;;8.10;99.90;;;;;;5042453;28;20068;-80
2023/12/01 07:18:25;;;;;;;6.67;2.60;;;8.20;99.90;;;;;;5044827;28;20601;-80
2023/12/01 07:20:51;;;;;;;14.80;3.15;;;8.20;99.90;;;;;;5039622;28;20076;-78
2023/12/01 07:23:20;;;;;;;5.22;2.55;;;8.10;99.90;;;;;;5038756;28;20493;-73
2023/12/01 07:25:50;;;;;;;8.90;2.50;;;8.10;99.90;;;;;;5044806;28;20029;-78
2023/12/01 07:28:15;;;;;;;5.43;2.42;;;8.10;99.90;;;;;;5045887;28;20089;-79
2023/12/01 07:30:41;;;;;;;8.57;2.10;;;8.10;99.90;;;;;;5042983;28;20025;-79
2023/12/01 07:33:08;;;;;;;6.70;2.60;;;8.10;99.90;;;;;;5042123;28;20069;-79
2023/12/01 07:35:34;;;;;;;3.90;2.05;;;8.10;99.90;;;;;;5038229;28;20024;-77
2023/12/01 07:38:00;;;;;;;;;;;8.10;99.90;;;;;;5040386;28;20489;-76
2023/12/01 07:40:27;;;;;;;5.00;2.22;;;8.10;99.90;;;;;;5042875;28;19923;-77
2023/12/01 07:42:55;;;;;;;4.75;2.38;;;8.10;99.90;;;;;;5040814;28;20041;-79
2023/12/01 07:45:21;;;;;;;3.00;1.52;;;8.10;99.90;;;;;;5078627;28;20037;-76
2023/12/01 07:47:48;;;;;;;;;;;8.00;99.90;;;;;;5037131;28;20025;-81
2023/12/01 07:50:14;;;;;;;2.88;1.55;;;8.10;99.90;;;;;;5036599;28;19996;-82
2023/12/01 07:52:43;;;;;;;;;;;8.00;99.90;;;;;;5040231;28;20017;-79
2023/12/01 07:55:09;;;;;;;3.40;1.70;;;8.10;99.90;;;;;;5035742;28;20415;-77
2023/12/01 07:57:35;;;;;;;4.33;2.00;;;8.00;99.90;;;;;;5038313;28;20029;-79
2023/12/01 08:00:02;;;;;;;4.22;1.75;;;8.10;99.90;;;;;;5040540;28;20397;-79
2023/12/01 08:02:28;;;;;;;8.75;2.90;;;8.00;99.90;;;;;;5035341;28;20409;-78
2023/12/01 08:04:54;;;;;;;4.93;2.53;;;8.10;99.90;;;;;;5043872;28;20029;-76
2023/12/01 08:07:19;;;;;;;4.13;1.90;;;8.10;99.90;;;;;;5036336;28;20024;-76
2023/12/01 08:09:45;;;;;;;4.47;2.30;;;8.00;99.90;;;;;;5039612;28;20040;-77
2023/12/01 08:12:11;;;;;;;2.47;1.60;;;8.10;99.90;;;;;;5043366;28;20043;-77
2023/12/01 08:14:36;;;;;;;4.60;2.00;;;8.10;99.90;;;;;;5037464;28;20151;-79
2023/12/01 08:17:02;;;;;;;4.23;2.13;;;8.10;99.90;;;;;;5040072;28;20915;-77
2023/12/01 08:19:28;;;;;;;3.20;1.90;;;8.10;99.90;;;;;;5036306;28;20037;-76
2023/12/01 08:21:53;;;;;;;16.10;3.27;;;8.10;99.90;;;;;;5032360;28;20049;-76
2023/12/01 08:24:20;;;;;;;7.27;3.00;;;8.10;99.90;;;;;;5042456;28;20029;-74
2023/12/01 08:26:46;;;;;;;13.55;3.33;;;8.10;99.90;;;;;;5037204;28;20524;-76
2023/12/01 08:29:12;;;;;;;3.58;2.53;;;8.10;99.90;;;;;;5046105;28;20024;-78
2023/12/01 08:31:39;;;;;;;6.63;2.55;;;8.10;99.90;;;;;;5035474;28;20047;-75
2023/12/01 08:34:07;;;;;;;4.80;2.67;;;8.20;99.90;;;;;;5041211;28;20056;-78
2023/12/01 08:36:37;;;;;;;6.53;2.92;;;8.10;99.90;;;;;;5053294;28;20041;-74
2023/12/01 08:39:04;;;;;;;5.97;2.45;;;8.20;99.90;;;;;;5048457;28;20022;-75
2023/12/01 08:41:29;;;;;;;5.63;2.38;;;8.10;99.90;;;;;;5036139;28;20044;-72
2023/12/01 08:43:55;;;;;;;3.73;2.33;;;8.20;99.90;;;;;;5037074;28;20032;-74
2023/12/01 08:46:21;;;;;;;4.82;2.80;;;8.10;99.90;;;;;;5037985;28;20294;-74
2023/12/01 08:48:47;;;;;;;3.65;2.47;;;8.20;99.90;;;;;;5039979;28;20033;-75
2023/12/01 08:51:13;;;;;;;3.93;2.40;;;8.20;99.90;;;;;;5039778;28;20105;-74
2023/12/01 08:53:38;;;;;;;6.37;2.37;;;8.20;99.90;;;;;;5029535;28;20108;-74
2023/12/01 08:56:05;;;;;;;5.10;2.50;;;8.20;99.90;;;;;;5042311;28;20030;-74
2023/12/01 08:58:30;;;;;;;4.57;2.30;;;8.10;99.90;;;;;;5035413;28;20033;-78
2023/12/01 09:00:56;;;;;;;5.33;2.70;;;8.10;99.90;;;;;;5035910;28;20048;-81
2023/12/01 09:03:21;;;;;;;10.33;3.13;;;8.10;99.90;;;;;;5039966;28;20075;-78
2023/12/01 09:05:48;;;;;;;7.37;3.37;;;8.10;99.90;;;;;;5034916;28;20042;-75
2023/12/01 09:08:14;;;;;;;7.07;3.83;;;8.10;99.90;;;;;;5037470;28;20098;-76
2023/12/01 09:10:39;;;;;;;4.35;3.22;;;8.10;99.90;;;;;;5035117;28;20029;-76
2023/12/01 09:13:05;;;;;;;6.03;3.33;;;8.00;99.90;;;;;;5039188;28;20136;-76
2023/12/01 09:15:31;;;;;;;5.18;3.17;;;8.10;99.90;;;;;;5036959;28;20033;-76
2023/12/01 09:17:56;;;;;;;4.90;3.00;;;8.10;99.90;;;;;;5037670;28;20143;-77
2023/12/01 09:20:22;;;;;;;4.97;2.90;;;8.00;99.90;;;;;;5039123;28;20040;-78
2023/12/01 09:22:48;;;;;;;7.37;3.10;;;8.10;99.90;;;;;;5033167;28;20428;-80
2023/12/01 09:25:13;;;;;;;6.27;2.93;;;8.10;99.90;;;;;;5035024;28;20496;-76
2023/12/01 09:27:41;;;;;;;5.97;3.05;;;8.10;99.90;;;;;;5040214;28;20033;-76
2023/12/01 09:30:10;;;;;;;5.10;2.80;;;8.10;99.90;;;;;;5037346;28;20072;-77
2023/12/01 09:32:36;;;;;;;6.38;3.10;;;8.10;99.90;;;;;;5039197;28;20032;-75
2023/12/01 09:35:02;;;;;;;5.70;3.23;;;8.20;99.90;;;;;;5041692;28;20033;-74
2023/12/01 09:37:28;;;;;;;;;;;8.20;99.90;;;;;;5035364;28;20087;-74
2023/12/01 09:39:54;;;;;;;7.88;2.95;;;8.20;99.90;;;;;;5035330;28;20327;-75
2023/12/01 09:42:22;;;;;;;8.90;3.40;;;8.10;99.90;;;;;;5036009;28;20028;-75
2023/12/01 09:44:50;;;;;;;5.82;3.50;;;8.20;99.90;;;;;;5033791;28;20029;-77
2023/12/01 09:47:17;;;;;;;5.72;3.00;;;8.20;99.90;;;;;;5036654;28;20025;-76
2023/12/01 09:49:47;;;;;;;8.02;2.85;;;8.20;99.90;;;;;;5036087;28;20021;-77
2023/12/01 09:52:13;;;;;;;5.18;3.25;;;8.20;99.90;;;;;;5032414;28;20416;-73
2023/12/01 09:54:38;;;;;;;9.37;3.57;;;8.20;99.90;;;;;;5035228;28;20029;-77
2023/12/01 09:57:07;;;;;;;7.40;3.87;;;8.20;99.90;;;;;;5036261;28;20030;-72
2023/12/01 09:59:36;;;;;;;6.55;3.35;;;8.20;99.90;;;;;;5039593;28;20531;-75
2023/12/01 10:02:03;;;;;;;6.82;3.60;;;8.20;99.90;;;;;;5039893;28;20041;-75
2023/12/01 10:04:32;;;;;;;10.15;4.55;;;8.20;99.90;;;;;;5039784;28;20028;-75
2023/12/01 10:07:01;;;;;;;6.85;3.67;;;8.20;99.90;;;;;;5041728;28;20037;-74
2023/12/01 10:09:33;;;;;;;7.13;4.38;;;8.20;99.90;;;;;;5038751;28;20029;-71
2023/12/01 10:12:12;;;;;;;7.93;4.70;;;8.20;99.90;;;;;;5040853;28;20034;-70
2023/12/01 10:14:42;;;;;;;6.15;3.30;;;8.30;99.90;;;;;;5051010;28;20116;-70
2023/12/01 10:17:12;;;;;;;9.55;4.32;;;8.20;99.90;;;;;;5037642;28;20505;-69
2023/12/01 10:19:48;;;;;;;7.25;3.67;;;8.30;99.90;;;;;;5039203;28;20029;-72
2023/12/01 10:22:17;;;;;;;6.40;2.88;;;8.30;99.90;;;;;;5042445;28;20040;-71
2023/12/01 10:24:53;;;;;;;4.25;3.30;;;8.30;99.90;;;;;;5042430;28;20543;-71
2023/12/01 10:27:20;;;;;;;8.70;4.87;;;8.30;99.90;;;;;;5039909;28;20524;-73
2023/12/01 10:29:47;;;;;;;20.92;7.68;;;8.20;99.90;;;;;;5036189;28;20029;-72
2023/12/01 10:32:14;;;;;;;15.35;7.75;;;8.30;99.90;;;;;;5036634;28;20382;-73
2023/12/01 10:34:49;;;;;;;14.73;8.25;;;8.30;99.90;;;;;;5063218;28;20022;-73
2023/12/01 10:37:16;;;;;;;12.10;6.68;;;8.30;99.90;;;;;;5038207;28;20087;-73
2023/12/01 10:39:43;;;;;;;13.82;7.15;;;8.30;99.90;;;;;;5043068;28;20037;-74
2023/12/01 10:42:09;;;;;;;16.95;8.55;;;8.30;99.90;;;;;;5043579;28;20070;-75
2023/12/01 10:44:36;;;;;;;13.88;7.90;;;8.30;99.90;;;;;;5036864;28;20549;-74
2023/12/01 10:47:02;;;;;;;;;;;8.30;99.90;;;;;;5037369;28;20086;-74
2023/12/01 10:49:27;;;;;;;4.95;3.17;;;8.20;99.90;;;;;;5040362;28;20331;-74
2023/12/01 10:51:53;;;;;;;5.70;3.40;;;8.20;99.90;;;;;;5039793;28;20032;-74
2023/12/01 10:54:23;;;;;;;10.97;3.83;;;8.20;99.90;;;;;;5032454;28;20241;-76
2023/12/01 10:57:01;;;;;;;4.90;3.22;;;8.20;99.90;;;;;;5034159;28;20029;-73
2023/12/01 10:59:29;;;;;;;6.57;3.80;;;8.20;99.90;;;;;;5043085;28;20025;-72
2023/12/01 11:01:59;;;;;;;6.00;3.17;;;8.20;99.90;;;;;;5036601;28;20048;-76
2023/12/01 11:04:29;;;;;;;4.10;3.10;;;8.20;99.90;;;;;;5039858;28;20017;-72
2023/12/01 11:06:54;;;;;;;4.47;3.13;;;8.20;99.90;;;;;;5036654;28;20501;-75
2023/12/01 11:09:35;;;;;;;4.37;3.30;;;8.20;99.90;;;;;;5053541;28;20033;-71
2023/12/01 11:12:16;;;;;;;4.45;3.13;;;8.20;99.90;;;;;;5039210;28;20091;-73
2023/12/01 11:14:45;;;;;;;5.68;3.00;;;8.20;99.90;;;;;;5041196;28;20116;-73
2023/12/01 11:17:13;;;;;;;4.95;3.05;;;8.20;99.90;;;;;;5035319;28;20032;-72
2023/12/01 11:19:39;;;;;;;4.45;2.63;;;8.20;99.90;;;;;;5033643;28;20029;-73
2023/12/01 11:22:24;;;;;;;5.68;3.70;;;8.20;99.90;;;;;;5050598;28;20449;-72
2023/12/01 11:24:50;;;;;;;7.90;3.33;;;8.20;99.90;;;;;;5037332;28;20083;-75
2023/12/01 11:27:16;;;;;;;4.75;3.30;;;8.20;99.90;;;;;;5034569;28;20033;-76
2023/12/01 11:30:12;;;;;;;6.85;3.60;;;8.20;99.90;;;;;;5037513;28;20029;-76
2023/12/01 11:32:40;;;;;;;6.32;4.07;;;8.20;99.90;;;;;;5044097;28;20045;-73
2023/12/01 11:35:09;;;;;;;5.70;4.00;;;8.20;99.90;;;;;;5036627;28;20132;-75
2023/12/01 11:37:56;;;;;;;6.47;3.80;;;8.20;99.90;;;;;;5036533;28;20029;-75
2023/12/01 11:40:22;;;;;;;9.32;4.43;;;8.20;99.90;;;;;;5034585;28;20131;-76
2023/12/01 11:42:51;;;;;;;6.80;3.33;;;8.20;99.90;;;;;;5033620;28;20532;-74
2023/12/01 11:45:34;;;;;;;3.97;3.00;;;8.20;99.90;;;;;;5041731;28;20036;-75
2023/12/01 11:48:02;;;;;;;4.97;2.78;;;8.20;99.90;;;;;;5041743;28;20031;-76
2023/12/01 11:50:28;;;;;;;7.50;3.28;;;8.20;99.90;;;;;;5034475;28;20800;-75
2023/12/01 11:52:55;;;;;;;7.47;3.45;;;8.20;99.90;;;;;;5033874;28;20128;-75
2023/12/01 11:55:21;;;;;;;8.68;4.32;;;8.20;99.90;;;;;;5045103;28;20032;-72
2023/12/01 11:57:56;;;;;;;13.77;6.07;;;8.20;99.90;;;;;;5035528;28;20093;-73
2023/12/01 12:00:22;;;;;;;7.32;3.42;;;8.20;99.90;;;;;;5026525;28;20124;-73
2023/12/01 12:02:47;;;;;;;15.00;4.60;;;8.20;99.90;;;;;;5034256;28;20545;-76
2023/12/01 12:05:13;;;;;;;4.80;3.20;;;8.20;99.90;;;;;;5074347;28;20025;-77
2023/12/01 12:07:41;;;;;;;5.90;2.45;;;8.20;99.90;;;;;;5037973;28;20501;-77
2023/12/01 12:10:07;;;;;;;9.73;3.80;;;8.10;99.90;;;;;;5038488;28;20079;-76
2023/12/01 12:12:33;;;;;;;12.80;4.03;;;8.10;99.90;;;;;;5038700;28;20100;-76
2023/12/01 12:15:08;;;;;;;9.40;4.50;;;8.10;99.90;;;;;;5058771;28;20053;-76
2023/12/01 12:17:34;;;;;;;11.88;3.80;;;8.10;99.90;;;;;;5036415;28;20033;-78
2023/12/01 12:19:59;;;;;;;5.20;3.03;;;8.10;99.90;;;;;;5038997;28;20037;-77
2023/12/01 12:22:26;;;;;;;5.87;2.43;;;8.00;99.90;;;;;;5040954;28;20352;-76
2023/12/01 12:24:52;;;;;;;5.22;2.90;;;8.00;99.90;;;;;;5036372;28;20398;-73
2023/12/01 12:27:18;;;;;;;6.85;3.47;;;8.00;99.90;;;;;;5036996;28;20574;-76
2023/12/01 12:29:45;;;;;;;7.88;3.60;;;7.90;99.90;;;;;;5040770;28;20033;-73
2023/12/01 12:32:10;;;;;;;7.97;2.88;;;8.00;99.90;;;;;;5043489;28;20033;-72
2023/12/01 12:34:38;;;;;;;6.03;2.97;;;8.00;99.90;;;;;;5035961;28;20409;-74
2023/12/01 12:37:04;;;;;;;2.78;2.13;;;7.80;99.90;;;;;;5035649;28;20083;-75
2023/12/01 12:39:32;;;;;;;4.27;1.97;;;7.80;99.90;;;;;;5039260;28;20037;-75
2023/12/01 12:41:59;;;;;;;5.20;1.92;;;7.80;99.90;;;;;;5036679;28;20056;-76
2023/12/01 12:44:26;;;;;;;5.55;2.20;;;7.70;99.90;;;;;;5039042;28;20017;-76
2023/12/01 12:47:03;;;;;;;3.88;2.15;;;7.70;99.90;;;;;;5036260;28;20033;-77
2023/12/01 12:49:33;;;;;;;3.63;2.17;;;7.70;99.90;;;;;;5039655;28;20124;-76
2023/12/01 12:52:00;;;;;;;3.75;1.75;;;7.70;99.90;;;;;;5037860;28;20053;-73
2023/12/01 12:54:26;;;;;;;7.25;1.48;;;7.60;99.90;;;;;;5037331;28;20108;-76
2023/12/01 12:56:51;;;;;;;3.67;1.70;;;7.60;99.90;;;;;;5038125;28;20572;-74